Time;durP1;ratioP1;P1;durP2;ratioP2;P2;SDS_P1;SDS_P2;PMS_P1;PMS_P2;Temp;Humidity;BMP_temperature;BMP_pressure;BME280_temperature;BME280_humidity;BME280_pressure;Samples;Min_cycle;Max_cycle;Signal;HPM_P1;HPM_P2
2022/06/06 00:01:13;;;;;;;4.20;3.30;;;18.30;99.90;;;;;;5054311;28;20442;-70
2022/06/06 00:03:41;;;;;;;3.60;3.30;;;18.30;99.90;;;;;;5053800;28;20442;-70
2022/06/06 00:06:11;;;;;;;5.35;3.17;;;18.30;99.90;;;;;;5053886;28;20442;-70
2022/06/06 00:08:38;;;;;;;3.70;3.40;;;18.30;99.90;;;;;;5054113;28;20410;-70
2022/06/06 00:11:08;;;;;;;5.90;3.40;;;18.30;99.90;;;;;;5054082;28;20204;-70
2022/06/06 00:13:37;;;;;;;3.45;3.25;;;18.30;99.90;;;;;;5053991;28;20558;-70
2022/06/06 00:16:05;;;;;;;3.63;3.33;;;18.30;99.90;;;;;;5054009;28;20199;-70
2022/06/06 00:18:33;;;;;;;4.25;3.40;;;18.30;99.90;;;;;;5053967;28;20583;-70
2022/06/06 00:21:00;;;;;;;4.10;3.70;;;18.30;99.90;;;;;;5054083;28;20216;-70
2022/06/06 00:23:27;;;;;;;3.45;3.15;;;18.30;99.90;;;;;;5053652;28;20665;-70
2022/06/06 00:25:54;;;;;;;3.78;3.50;;;18.30;99.90;;;;;;5053890;28;20199;-70
2022/06/06 00:28:21;;;;;;;3.85;3.55;;;18.30;99.90;;;;;;5053811;28;20224;-70
2022/06/06 00:30:49;;;;;;;3.75;3.45;;;18.30;99.90;;;;;;5053861;28;20298;-70
2022/06/06 00:36:01;;;;;;;5.32;3.65;;;18.30;99.90;;;;;;5053547;28;20194;-70
2022/06/06 00:38:28;;;;;;;3.85;3.55;;;18.30;99.90;;;;;;5053373;28;20225;-70
2022/06/06 00:40:55;;;;;;;3.50;3.30;;;18.40;99.90;;;;;;5053469;28;20294;-70
2022/06/06 00:43:22;;;;;;;3.60;3.35;;;18.40;99.90;;;;;;5053544;28;20598;-70
2022/06/06 00:45:54;;;;;;;4.00;3.60;;;18.40;99.90;;;;;;5053521;28;20733;-70
2022/06/06 00:48:25;;;;;;;3.77;3.47;;;18.40;99.90;;;;;;5053756;28;20238;-70
2022/06/06 00:50:57;;;;;;;3.70;3.40;;;18.40;99.90;;;;;;5053599;28;20769;-70
2022/06/06 00:53:30;;;;;;;3.83;3.42;;;18.40;99.90;;;;;;5053161;28;20513;-70
2022/06/06 00:56:03;;;;;;;4.15;3.85;;;18.30;99.90;;;;;;5053513;28;20290;-70
2022/06/06 00:58:31;;;;;;;4.53;4.13;;;18.30;99.90;;;;;;5053393;28;20227;-70
2022/06/06 01:01:01;;;;;;;3.75;3.50;;;18.20;99.90;;;;;;5053480;28;20211;-70
2022/06/06 01:03:30;;;;;;;3.90;3.60;;;18.10;99.90;;;;;;5053233;28;20242;-70
2022/06/06 01:05:59;;;;;;;4.10;3.70;;;18.00;99.90;;;;;;5053730;28;20203;-70
2022/06/06 01:08:27;;;;;;;4.15;3.85;;;18.00;99.90;;;;;;5053067;28;20314;-70
2022/06/06 01:10:54;;;;;;;4.25;3.95;;;18.00;99.90;;;;;;5053397;28;20246;-70
2022/06/06 01:13:23;;;;;;;4.72;4.03;;;18.00;99.90;;;;;;5052884;28;20785;-70
2022/06/06 01:16:33;;;;;;;4.32;4.03;;;17.90;99.90;;;;;;5054542;28;20203;-70
2022/06/06 01:19:31;;;;;;;4.30;4.00;;;17.90;99.90;;;;;;5028142;28;20259;-70
2022/06/06 01:22:21;;;;;;;4.72;4.32;;;18.00;99.90;;;;;;5057004;28;20204;-70
2022/06/06 01:25:35;;;;;;;4.40;4.07;;;17.90;99.90;;;;;;5057305;28;20289;-70
2022/06/06 01:28:05;;;;;;;4.70;4.15;;;17.90;99.90;;;;;;4976302;28;20249;-70
2022/06/06 01:30:39;;;;;;;4.30;4.00;;;17.90;99.90;;;;;;5039379;28;20215;-70
2022/06/06 01:33:11;;;;;;;4.65;4.25;;;17.90;99.90;;;;;;5056950;28;20250;-70
2022/06/06 01:35:41;;;;;;;4.45;4.07;;;17.90;99.90;;;;;;5056968;28;20211;-70
2022/06/06 01:38:09;;;;;;;5.60;5.10;;;18.00;99.90;;;;;;5057024;28;20621;-70
2022/06/06 01:40:43;;;;;;;5.40;4.93;;;18.00;99.90;;;;;;5057136;28;20207;-70
2022/06/06 01:43:14;;;;;;;5.95;5.45;;;18.00;99.90;;;;;;5056805;28;20290;-70
2022/06/06 01:45:46;;;;;;;5.28;4.60;;;18.00;99.90;;;;;;5056958;28;20235;-70
2022/06/06 01:48:18;;;;;;;4.60;4.15;;;18.10;99.90;;;;;;5056678;28;20736;-70
2022/06/06 01:50:45;;;;;;;4.80;4.40;;;18.00;99.90;;;;;;5056646;28;20282;-70
2022/06/06 01:53:14;;;;;;;4.15;3.85;;;18.00;99.90;;;;;;5056258;28;20319;-70
2022/06/06 01:55:44;;;;;;;4.30;3.90;;;17.90;99.90;;;;;;5056442;28;20297;-70
2022/06/06 01:58:14;;;;;;;5.07;4.68;;;17.90;99.90;;;;;;5056610;28;20298;-70
2022/06/06 02:00:43;;;;;;;8.65;4.65;;;17.80;99.90;;;;;;5056727;28;20242;-70
2022/06/06 02:03:10;;;;;;;4.50;4.10;;;17.70;99.90;;;;;;5056288;28;20291;-70
2022/06/06 02:05:37;;;;;;;4.20;3.90;;;17.70;99.90;;;;;;5056449;28;20297;-70
2022/06/06 02:08:04;;;;;;;4.97;4.05;;;17.60;99.90;;;;;;5056172;28;20298;-70
2022/06/06 02:10:31;;;;;;;5.22;4.72;;;17.60;99.90;;;;;;5056522;28;20635;-70
2022/06/06 02:12:58;;;;;;;4.60;4.20;;;17.50;99.90;;;;;;5056072;28;20335;-70
2022/06/06 02:15:26;;;;;;;9.75;5.30;;;17.40;99.90;;;;;;5056240;28;20298;-70
2022/06/06 02:17:57;;;;;;;6.13;4.28;;;17.40;99.90;;;;;;5056325;28;20294;-70
2022/06/06 02:20:25;;;;;;;6.68;4.93;;;17.30;99.90;;;;;;5056060;28;20230;-70
2022/06/06 02:22:53;;;;;;;4.93;4.53;;;17.20;99.90;;;;;;5056086;28;20617;-70
2022/06/06 02:25:21;;;;;;;5.00;4.60;;;17.10;99.90;;;;;;5056013;28;20661;-70
2022/06/06 02:27:48;;;;;;;5.05;4.65;;;17.00;99.90;;;;;;5055288;28;20302;-70
2022/06/06 02:30:17;;;;;;;7.10;5.15;;;17.00;99.90;;;;;;5056088;28;20314;-70
2022/06/06 02:32:44;;;;;;;5.47;5.05;;;16.90;99.90;;;;;;5055642;28;20233;-70
2022/06/06 02:35:16;;;;;;;4.90;4.30;;;16.80;99.90;;;;;;5056017;28;20207;-70
2022/06/06 02:37:44;;;;;;;5.45;4.95;;;16.90;99.90;;;;;;5055882;28;20308;-70
2022/06/06 02:40:12;;;;;;;5.25;4.80;;;16.90;99.90;;;;;;5055575;28;20706;-70
2022/06/06 02:42:39;;;;;;;6.38;4.95;;;16.90;99.90;;;;;;5055501;28;20291;-70
2022/06/06 02:45:09;;;;;;;5.10;4.70;;;16.90;99.90;;;;;;5055673;28;20726;-70
2022/06/06 02:47:36;;;;;;;5.60;4.50;;;16.90;99.90;;;;;;5055643;28;20203;-70
2022/06/06 02:50:04;;;;;;;5.55;5.05;;;16.90;99.90;;;;;;5055678;28;20314;-70
2022/06/06 02:52:33;;;;;;;5.22;4.75;;;16.90;99.90;;;;;;5055109;28;20310;-71
2022/06/06 02:55:01;;;;;;;5.10;4.60;;;16.90;99.90;;;;;;5055545;28;20658;-70
2022/06/06 02:57:29;;;;;;;5.70;4.70;;;16.90;99.90;;;;;;5055575;28;20294;-70
2022/06/06 02:59:59;;;;;;;5.53;5.03;;;16.80;99.90;;;;;;5055425;28;20262;-70
2022/06/06 03:02:26;;;;;;;5.38;4.65;;;16.60;99.90;;;;;;5055319;28;20257;-70
2022/06/06 03:04:53;;;;;;;6.97;5.05;;;16.60;99.90;;;;;;5055425;28;20562;-70
2022/06/06 03:07:29;;;;;;;5.53;4.95;;;16.60;99.90;;;;;;5055413;28;20207;-70
2022/06/06 03:10:08;;;;;;;5.50;5.00;;;16.60;99.90;;;;;;5055372;28;20318;-69
2022/06/06 03:12:56;;;;;;;5.80;5.30;;;16.50;99.90;;;;;;5055042;28;20325;-70
2022/06/06 03:20:46;;;;;;;5.63;5.20;;;16.50;99.90;;;;;;5055086;28;20217;-70
2022/06/06 03:21:33;;;;;;;5.50;5.10;;;16.30;99.90;;;;;;5054952;28;20210;-70
2022/06/06 03:24:16;;;;;;;6.32;5.40;;;16.40;99.90;;;;;;5054771;28;20226;-70
2022/06/06 03:26:58;;;;;;;6.10;5.40;;;16.30;99.90;;;;;;5055076;28;20576;-70
2022/06/06 03:29:39;;;;;;;6.55;5.30;;;16.20;99.90;;;;;;5054656;28;20321;-70
2022/06/06 03:32:14;;;;;;;5.88;5.30;;;16.00;99.90;;;;;;5054726;28;20298;-70
2022/06/06 03:34:48;;;;;;;5.90;5.40;;;16.10;99.90;;;;;;5055065;28;20297;-70
2022/06/06 03:37:25;;;;;;;7.28;6.43;;;16.10;99.90;;;;;;5054833;28;20210;-70
2022/06/06 03:40:01;;;;;;;6.70;6.10;;;16.10;99.90;;;;;;5054823;28;20230;-70
2022/06/06 03:42:36;;;;;;;6.95;6.05;;;16.00;99.90;;;;;;5054544;28;20330;-70
2022/06/06 03:45:11;;;;;;;6.75;6.22;;;16.10;99.90;;;;;;5054746;28;20619;-70
2022/06/06 03:47:47;;;;;;;7.78;6.20;;;16.10;99.90;;;;;;5054639;28;20305;-70
2022/06/06 03:50:20;;;;;;;6.15;5.65;;;16.20;99.90;;;;;;5054657;28;20314;-70
2022/06/06 03:52:51;;;;;;;6.95;6.35;;;16.30;99.90;;;;;;5054083;28;20779;-70
2022/06/06 03:55:32;;;;;;;6.10;5.60;;;16.30;99.90;;;;;;5054520;28;20636;-70
2022/06/06 03:58:03;;;;;;;6.60;6.10;;;16.20;99.90;;;;;;5054395;28;20211;-70
2022/06/06 04:00:32;;;;;;;7.00;6.40;;;16.10;99.90;;;;;;5054437;28;20198;-70
2022/06/06 04:03:01;;;;;;;7.28;6.57;;;16.00;99.90;;;;;;5054144;28;20230;-70
2022/06/06 04:05:30;;;;;;;7.55;6.90;;;16.00;99.90;;;;;;5054321;28;20242;-70
2022/06/06 04:07:57;;;;;;;6.78;6.18;;;15.80;99.90;;;;;;5054264;28;20300;-70
2022/06/06 04:10:30;;;;;;;7.72;7.03;;;15.70;99.90;;;;;;5054272;28;20293;-70
2022/06/06 04:13:11;;;;;;;6.75;6.15;;;15.60;99.90;;;;;;5053975;28;20209;-70
2022/06/06 04:15:50;;;;;;;7.05;6.35;;;15.70;99.90;;;;;;5053969;28;20734;-70
2022/06/06 04:18:27;;;;;;;6.72;6.13;;;15.80;99.90;;;;;;5054137;28;20677;-69
2022/06/06 04:21:02;;;;;;;7.97;5.90;;;15.90;99.90;;;;;;5054157;28;20195;-70
2022/06/06 04:23:47;;;;;;;6.50;5.95;;;16.00;99.90;;;;;;5053800;28;20233;-70
2022/06/06 04:26:20;;;;;;;6.32;5.72;;;16.20;99.90;;;;;;5053847;28;20733;-70
2022/06/06 04:28:57;;;;;;;6.45;5.85;;;16.20;99.90;;;;;;5053877;28;20262;-70
2022/06/06 04:31:35;;;;;;;8.63;6.32;;;16.30;99.90;;;;;;5053951;28;20198;-70
2022/06/06 04:34:10;;;;;;;6.38;5.78;;;16.30;99.90;;;;;;5053715;28;20206;-70
2022/06/06 04:36:44;;;;;;;6.32;5.82;;;16.30;99.90;;;;;;5053855;28;20210;-70
2022/06/06 04:39:19;;;;;;;6.32;5.82;;;16.30;99.90;;;;;;5053571;28;20237;-70
2022/06/06 04:41:54;;;;;;;7.25;6.38;;;16.30;99.90;;;;;;5053803;28;20191;-70
2022/06/06 04:44:27;;;;;;;7.70;7.00;;;16.20;99.90;;;;;;5053465;28;20314;-70
2022/06/06 04:46:59;;;;;;;7.90;7.10;;;16.10;99.90;;;;;;5053502;28;20211;-70
2022/06/06 04:49:28;;;;;;;7.28;6.65;;;16.10;99.90;;;;;;5053649;28;20310;-70
2022/06/06 04:51:57;;;;;;;12.82;7.60;;;16.10;99.90;;;;;;5053128;28;20732;-70
2022/06/06 04:54:25;;;;;;;7.43;6.43;;;16.10;99.90;;;;;;5052982;28;20212;-70
2022/06/06 04:56:54;;;;;;;6.60;6.00;;;16.10;99.90;;;;;;5053590;28;20618;-70
2022/06/06 04:59:25;;;;;;;6.03;5.45;;;16.30;99.90;;;;;;5053451;28;20227;-70
2022/06/06 05:01:52;;;;;;;6.22;5.72;;;16.40;99.90;;;;;;5053501;28;20298;-70
2022/06/06 05:04:19;;;;;;;6.00;5.40;;;16.60;99.90;;;;;;5053609;28;20314;-70
2022/06/06 05:07:19;;;;;;;6.65;6.07;;;16.80;99.90;;;;;;5053397;28;20206;-70
2022/06/06 05:10:04;;;;;;;7.95;6.10;;;17.00;99.90;;;;;;5053439;28;20559;-70
2022/06/06 05:12:53;;;;;;;6.63;6.10;;;17.00;99.90;;;;;;5020223;28;20684;-70
2022/06/06 05:15:30;;;;;;;7.00;6.40;;;16.90;99.90;;;;;;5053326;28;20565;-70
2022/06/06 05:18:21;;;;;;;7.18;6.57;;;16.90;99.90;;;;;;5053374;28;20302;-70
2022/06/06 05:21:14;;;;;;;6.80;6.10;;;16.90;99.90;;;;;;5053076;28;20642;-70
2022/06/06 05:24:10;;;;;;;6.38;5.85;;;17.00;99.90;;;;;;5052829;28;20314;-70
2022/06/06 05:26:52;;;;;;;6.60;6.00;;;17.00;99.90;;;;;;5053157;28;20561;-70
2022/06/06 05:29:39;;;;;;;6.38;5.88;;;17.00;99.90;;;;;;5053170;28;20310;-70
2022/06/06 05:32:24;;;;;;;6.85;6.25;;;17.10;99.90;;;;;;5053105;28;20188;-70
2022/06/06 05:34:57;;;;;;;6.90;5.78;;;17.10;99.90;;;;;;5053213;28;20204;-70
2022/06/06 05:37:37;;;;;;;7.90;6.10;;;17.10;99.90;;;;;;5053208;28;20303;-70
2022/06/06 05:40:15;;;;;;;8.70;6.20;;;17.20;99.90;;;;;;5052869;28;20309;-70
2022/06/06 05:43:00;;;;;;;7.50;5.93;;;17.20;99.90;;;;;;5052874;28;20285;-69
2022/06/06 05:45:35;;;;;;;6.47;5.97;;;17.30;99.90;;;;;;5053023;28;20570;-70
2022/06/06 05:48:15;;;;;;;6.57;6.07;;;17.30;99.90;;;;;;5052988;28;20253;-70
2022/06/06 05:50:59;;;;;;;7.50;6.82;;;17.40;99.90;;;;;;5053047;28;20194;-70
2022/06/06 05:53:52;;;;;;;5.95;5.45;;;17.50;99.90;;;;;;5052729;28;20219;-70
2022/06/06 05:56:45;;;;;;;6.57;5.97;;;17.60;99.90;;;;;;5053026;28;20539;-70
2022/06/06 05:59:34;;;;;;;6.75;6.00;;;17.80;99.90;;;;;;5052798;28;20310;-70
2022/06/06 06:02:24;;;;;;;5.88;5.25;;;17.80;99.90;;;;;;5052961;28;20211;-70
2022/06/06 06:05:14;;;;;;;7.50;5.38;;;17.90;99.90;;;;;;5056554;28;20224;-70
2022/06/06 06:07:57;;;;;;;6.00;5.50;;;18.10;99.90;;;;;;5056583;28;20210;-70
2022/06/06 06:10:33;;;;;;;6.72;6.03;;;18.00;99.90;;;;;;5056594;28;20279;-70
2022/06/06 06:13:21;;;;;;;5.65;5.15;;;18.00;99.90;;;;;;5056221;28;20303;-70
2022/06/06 06:15:52;;;;;;;8.20;6.63;;;18.20;99.90;;;;;;5056339;28;20594;-70
2022/06/06 06:18:23;;;;;;;6.22;5.75;;;18.30;99.90;;;;;;5056062;28;20230;-70
2022/06/06 06:20:57;;;;;;;6.13;5.65;;;18.30;99.90;;;;;;5056499;28;20283;-70
2022/06/06 06:23:27;;;;;;;6.70;5.80;;;18.50;99.90;;;;;;5055866;28;20300;-70
2022/06/06 06:25:56;;;;;;;7.33;6.00;;;18.60;99.90;;;;;;5056237;28;20532;-70
2022/06/06 06:28:23;;;;;;;5.63;5.13;;;18.80;99.90;;;;;;5056052;28;20563;-70
2022/06/06 06:30:59;;;;;;;5.53;5.13;;;19.00;99.90;;;;;;5056154;28;20446;-70
2022/06/06 06:33:39;;;;;;;5.20;4.80;;;19.10;99.90;;;;;;5055939;28;20446;-70
2022/06/06 06:36:20;;;;;;;5.83;5.33;;;19.30;99.90;;;;;;5055978;28;20990;-70
2022/06/06 06:39:06;;;;;;;6.20;5.73;;;19.40;99.90;;;;;;5056030;28;20546;-70
2022/06/06 06:41:41;;;;;;;5.40;5.00;;;19.40;99.90;;;;;;5055954;28;20448;-70
2022/06/06 06:44:10;;;;;;;6.17;5.67;;;19.50;99.90;;;;;;5055479;28;20658;-70
2022/06/06 06:46:41;;;;;;;5.27;4.87;;;19.60;99.90;;;;;;5055860;28;20529;-70
2022/06/06 06:49:30;;;;;;;5.70;5.07;;;19.70;99.90;;;;;;5055737;28;20468;-70
2022/06/06 06:52:09;;;;;;;5.77;5.27;;;19.80;99.90;;;;;;5055843;28;20480;-70
2022/06/06 06:54:51;;;;;;;7.33;6.63;;;19.80;99.90;;;;;;5055474;28;20443;-70
2022/06/06 06:57:29;;;;;;;6.00;5.50;;;19.90;99.90;;;;;;5055560;28;20531;-70
2022/06/06 07:00:07;;;;;;;5.40;4.90;;;20.00;99.90;;;;;;5055585;28;20550;-69
2022/06/06 07:08:34;;;;;;;5.80;5.30;;;20.40;99.90;;;;;;5055464;28;20476;-70
2022/06/06 07:11:31;;;;;;;5.60;5.10;;;20.40;99.90;;;;;;5055465;28;20840;-70
2022/06/06 07:14:12;;;;;;;6.00;5.50;;;20.40;99.90;;;;;;5048154;28;20544;-70
2022/06/06 07:16:40;;;;;;;5.90;5.40;;;20.50;99.90;;;;;;5055213;28;20511;-70
2022/06/06 07:19:11;;;;;;;6.20;5.70;;;20.70;99.90;;;;;;5054924;28;21062;-70
2022/06/06 07:21:39;;;;;;;5.97;5.47;;;20.80;99.90;;;;;;5055219;28;20858;-70
2022/06/06 07:24:09;;;;;;;6.10;5.60;;;20.90;99.90;;;;;;5054907;28;20480;-70
2022/06/06 07:26:38;;;;;;;5.60;5.20;;;20.90;99.90;;;;;;5054996;28;20438;-70
2022/06/06 07:29:07;;;;;;;6.20;5.70;;;21.00;99.90;;;;;;5055050;28;20552;-70
2022/06/06 07:31:54;;;;;;;5.53;5.13;;;20.90;99.90;;;;;;5055000;28;20449;-70
2022/06/06 07:34:58;;;;;;;5.77;5.37;;;20.80;99.90;;;;;;5054649;28;20438;-70
2022/06/06 07:37:47;;;;;;;6.50;5.63;;;20.80;99.90;;;;;;5051346;28;20459;-70
2022/06/06 07:40:25;;;;;;;5.83;5.43;;;20.80;99.90;;;;;;5054887;28;20568;-70
2022/06/06 07:43:19;;;;;;;8.23;7.43;;;20.80;99.90;;;;;;5054525;28;20549;-70
2022/06/06 07:45:48;;;;;;;5.97;5.47;;;20.90;99.90;;;;;;5052142;28;20452;-70
2022/06/06 07:48:27;;;;;;;5.30;4.90;;;20.90;99.90;;;;;;5054397;28;20529;-71
2022/06/06 07:51:03;;;;;;;6.20;5.70;;;21.10;99.90;;;;;;5054740;28;20509;-70
2022/06/06 07:53:40;;;;;;;4.87;4.57;;;21.20;99.90;;;;;;5054168;28;20460;-70
2022/06/06 07:56:19;;;;;;;5.13;4.73;;;21.80;99.90;;;;;;5054533;28;20445;-70
2022/06/06 07:58:56;;;;;;;5.63;5.27;;;22.60;99.90;;;;;;5054462;28;20886;-70
2022/06/06 08:01:33;;;;;;;5.30;4.67;;;23.40;99.90;;;;;;5054516;28;20436;-70
2022/06/06 08:04:13;;;;;;;4.53;4.20;;;23.80;99.90;;;;;;5053797;28;20563;-70
2022/06/06 08:06:49;;;;;;;4.90;4.50;;;23.90;99.90;;;;;;5054308;28;20481;-70
2022/06/06 08:09:48;;;;;;;4.90;4.57;;;23.80;99.90;;;;;;5053973;28;20558;-70
2022/06/06 08:12:38;;;;;;;4.90;4.50;;;23.50;99.90;;;;;;5054001;28;20867;-71
2022/06/06 08:15:17;;;;;;;5.87;5.47;;;23.20;99.90;;;;;;5053836;28;20868;-70
2022/06/06 08:18:04;;;;;;;4.37;4.07;;;23.10;99.90;;;;;;5054119;28;20450;-70
2022/06/06 08:20:39;;;;;;;4.53;4.23;;;23.20;99.90;;;;;;5054135;28;20428;-70
2022/06/06 08:23:10;;;;;;;4.80;4.40;;;23.30;99.90;;;;;;5053862;28;20535;-71
2022/06/06 08:25:38;;;;;;;4.40;4.10;;;23.60;99.90;;;;;;5053087;28;20981;-70
2022/06/06 08:28:07;;;;;;;4.60;4.30;;;24.00;99.90;;;;;;5053689;28;20532;-70
2022/06/06 08:30:35;;;;;;;5.43;5.00;;;24.30;99.90;;;;;;5053641;28;20487;-70
2022/06/06 08:33:02;;;;;;;4.87;4.47;;;24.60;99.90;;;;;;5053480;28;20446;-69
2022/06/06 08:35:41;;;;;;;6.33;5.80;;;25.10;99.60;;;;;;5054155;28;20473;-69
2022/06/06 08:38:29;;;;;;;3.77;3.57;;;26.00;94.80;;;;;;5053578;28;20934;-69
2022/06/06 08:41:25;;;;;;;3.40;3.20;;;27.30;91.90;;;;;;5043718;28;20495;-69
2022/06/06 08:44:02;;;;;;;3.50;3.30;;;28.10;84.20;;;;;;5026798;28;20569;-69
2022/06/06 08:46:55;;;;;;;4.00;3.70;;;28.80;80.90;;;;;;5054230;28;20450;-69
2022/06/06 08:52:55;;;;;;;3.27;3.07;;;29.70;72.60;;;;;;5053116;28;20840;-70
2022/06/06 08:55:40;;;;;;;3.43;3.23;;;30.00;66.50;;;;;;5053445;28;20984;-69
2022/06/06 08:58:36;;;;;;;3.70;3.00;;;30.20;67.50;;;;;;5053263;28;20467;-69
2022/06/06 09:01:18;;;;;;;6.13;5.63;;;30.30;63.70;;;;;;5053527;28;20522;-69
2022/06/06 09:04:08;;;;;;;3.67;3.40;;;30.00;62.60;;;;;;5053311;28;20437;-69
2022/06/06 09:07:18;;;;;;;3.97;3.67;;;29.10;65.40;;;;;;5053378;28;20537;-69
2022/06/06 09:10:20;;;;;;;3.87;3.63;;;29.20;68.10;;;;;;5045812;28;20470;-69
2022/06/06 09:13:26;;;;;;;10.57;9.47;;;29.70;68.80;;;;;;5053195;28;20481;-69
2022/06/06 09:16:20;;;;;;;3.17;2.97;;;30.70;59.00;;;;;;5030515;28;20773;-69
2022/06/06 09:19:19;;;;;;;3.07;2.80;;;32.20;57.10;;;;;;5053380;28;20531;-69
2022/06/06 09:22:18;;;;;;;2.40;2.30;;;33.20;54.10;;;;;;5053337;28;20544;-69
2022/06/06 09:25:09;;;;;;;2.70;2.60;;;33.70;50.20;;;;;;5053169;28;20490;-69
2022/06/06 09:28:11;;;;;;;2.93;2.70;;;32.20;50.50;;;;;;5053762;28;20528;-69
2022/06/06 09:31:04;;;;;;;3.37;3.17;;;31.00;53.50;;;;;;5052916;28;20446;-69
2022/06/06 09:34:03;;;;;;;3.10;2.90;;;30.10;56.20;;;;;;5052805;28;20537;-69
2022/06/06 09:36:44;;;;;;;3.20;3.00;;;30.20;55.60;;;;;;5053643;28;20449;-69
2022/06/06 09:39:21;;;;;;;3.43;3.23;;;31.30;55.40;;;;;;5057139;28;20467;-69
2022/06/06 09:42:00;;;;;;;2.80;2.70;;;32.80;52.10;;;;;;5057092;28;20429;-69
2022/06/06 09:44:52;;;;;;;2.60;2.50;;;34.10;49.60;;;;;;5056994;28;20568;-69
2022/06/06 09:47:51;;;;;;;3.00;2.80;;;34.40;49.70;;;;;;5057028;28;20528;-69
2022/06/06 09:50:45;;;;;;;2.70;2.50;;;34.60;46.70;;;;;;5056878;28;20976;-69
2022/06/06 09:59:01;;;;;;;2.70;2.60;;;33.80;46.10;;;;;;5056483;28;20456;-69
2022/06/06 10:00:21;;;;;;;2.33;2.20;;;32.80;47.50;;;;;;5056517;28;20460;-69
2022/06/06 10:03:28;;;;;;;2.70;2.60;;;32.00;49.50;;;;;;5056389;28;20804;-69
2022/06/06 10:06:33;;;;;;;2.70;2.60;;;33.20;47.80;;;;;;5056574;28;20481;-69
2022/06/06 10:09:30;;;;;;;3.20;3.00;;;33.50;47.30;;;;;;5056610;28;20553;-69
2022/06/06 10:12:29;;;;;;;2.63;2.53;;;34.20;47.80;;;;;;5056549;28;20529;-69
2022/06/06 10:15:27;;;;;;;2.57;2.47;;;33.80;47.20;;;;;;5056546;28;20525;-69
2022/06/06 10:18:18;;;;;;;2.50;2.40;;;33.10;44.20;;;;;;5030346;28;20955;-69
2022/06/06 10:21:01;;;;;;;2.70;2.60;;;32.20;44.60;;;;;;5053624;28;20540;-69
2022/06/06 10:23:53;;;;;;;3.53;3.23;;;31.40;47.50;;;;;;5055998;28;20475;-69
2022/06/06 10:26:54;;;;;;;3.10;2.90;;;30.70;49.40;;;;;;5056195;28;20609;-69
2022/06/06 10:33:12;;;;;;;3.10;2.80;;;30.50;51.40;;;;;;5056002;28;20433;-69
2022/06/06 10:35:54;;;;;;;3.70;3.00;;;29.40;51.80;;;;;;5056127;28;20857;-69
2022/06/06 10:38:57;;;;;;;3.30;3.10;;;28.70;56.20;;;;;;5055947;28;20556;-69
2022/06/06 10:41:46;;;;;;;3.30;3.10;;;28.50;58.50;;;;;;5056030;28;20447;-69
2022/06/06 10:44:39;;;;;;;3.13;2.83;;;28.10;57.40;;;;;;5055464;28;20913;-69
2022/06/06 10:47:18;;;;;;;3.27;3.07;;;27.50;56.50;;;;;;5055649;28;21000;-69
2022/06/06 10:49:56;;;;;;;3.37;3.17;;;27.10;57.70;;;;;;5055138;28;20541;-69
2022/06/06 10:52:56;;;;;;;3.87;3.57;;;26.60;58.70;;;;;;5055466;28;20437;-69
2022/06/06 10:55:48;;;;;;;3.30;3.10;;;26.20;60.60;;;;;;5029794;28;20532;-68
2022/06/06 10:58:54;;;;;;;3.80;3.50;;;25.80;62.80;;;;;;5055782;28;20446;-69
2022/06/06 11:01:53;;;;;;;3.40;3.20;;;25.40;64.30;;;;;;5055334;28;20936;-69
2022/06/06 11:05:02;;;;;;;4.33;4.03;;;25.10;67.50;;;;;;5055274;28;20529;-69
2022/06/06 11:07:55;;;;;;;4.97;3.40;;;24.90;67.90;;;;;;5038736;28;20532;-69
2022/06/06 11:11:07;;;;;;;3.20;3.00;;;24.90;67.70;;;;;;5042387;28;21014;-69
2022/06/06 11:13:47;;;;;;;3.43;3.23;;;25.00;74.60;;;;;;5039766;28;20453;-69
2022/06/06 11:16:52;;;;;;;3.10;2.90;;;25.20;71.10;;;;;;5055753;28;20526;-69
2022/06/06 11:20:13;;;;;;;3.20;3.00;;;25.40;66.30;;;;;;5054858;28;20552;-69
2022/06/06 11:22:42;;;;;;;2.90;2.70;;;25.40;64.90;;;;;;5019167;28;20529;-69
2022/06/06 11:25:13;;;;;;;3.53;3.23;;;25.50;68.70;;;;;;5055260;28;20576;-68
2022/06/06 11:28:04;;;;;;;3.50;3.30;;;25.60;66.40;;;;;;5055142;28;20446;-69
2022/06/06 11:31:04;;;;;;;3.63;3.43;;;25.70;67.10;;;;;;5055055;28;20525;-69
2022/06/06 11:34:32;;;;;;;3.10;2.90;;;25.70;67.10;;;;;;5054912;28;20434;-69
2022/06/06 11:37:33;;;;;;;4.20;3.90;;;25.70;65.70;;;;;;5054674;28;20938;-69
2022/06/06 11:40:50;;;;;;;3.70;3.40;;;25.60;68.50;;;;;;5051990;28;20551;-69
2022/06/06 11:43:43;;;;;;;3.33;3.13;;;25.70;69.20;;;;;;5028930;28;20505;-69
2022/06/06 11:46:53;;;;;;;3.30;3.07;;;25.80;68.90;;;;;;5054926;28;20485;-69
2022/06/06 11:50:20;;;;;;;6.73;6.13;;;25.80;67.60;;;;;;5054403;28;20820;-70
2022/06/06 11:53:34;;;;;;;3.27;3.07;;;25.70;67.20;;;;;;5054261;28;20551;-71
2022/06/06 11:56:11;;;;;;;3.10;2.90;;;25.40;65.60;;;;;;5054396;28;20988;-70
2022/06/06 11:59:33;;;;;;;3.47;3.27;;;25.30;67.10;;;;;;5054402;28;20538;-70
2022/06/06 12:02:48;;;;;;;3.20;3.00;;;25.20;67.90;;;;;;5018075;28;20523;-70
2022/06/06 12:05:53;;;;;;;3.17;2.87;;;25.00;67.90;;;;;;5018626;28;20489;-70
2022/06/06 12:08:49;;;;;;;3.40;3.10;;;24.90;69.90;;;;;;5054026;28;20476;-70
2022/06/06 12:11:52;;;;;;;5.93;5.53;;;25.00;72.20;;;;;;5054018;28;20838;-70
2022/06/06 12:14:51;;;;;;;4.40;4.07;;;25.30;71.40;;;;;;5054050;28;20437;-70
2022/06/06 12:17:35;;;;;;;3.00;2.80;;;25.20;67.20;;;;;;5053894;28;20442;-70
2022/06/06 12:20:42;;;;;;;3.70;3.50;;;25.00;67.90;;;;;;5054118;28;20827;-70
2022/06/06 12:23:17;;;;;;;3.27;3.07;;;24.90;69.90;;;;;;5043442;28;20528;-70
2022/06/06 12:25:58;;;;;;;5.53;3.23;;;24.60;67.70;;;;;;5053969;28;20509;-70
2022/06/06 12:28:58;;;;;;;3.50;3.20;;;24.50;67.40;;;;;;5053888;28;20473;-70
2022/06/06 12:31:39;;;;;;;3.20;3.00;;;24.20;72.60;;;;;;5053760;28;21046;-70
2022/06/06 12:34:13;;;;;;;3.63;3.33;;;24.10;73.50;;;;;;5053738;28;20539;-70
2022/06/06 12:36:48;;;;;;;3.17;2.97;;;24.10;71.50;;;;;;5053826;28;20998;-71
2022/06/06 12:39:28;;;;;;;3.40;3.10;;;24.10;70.80;;;;;;5053562;28;20579;-70
2022/06/06 12:42:05;;;;;;;3.00;2.83;;;24.30;70.80;;;;;;5054082;28;20524;-70
2022/06/06 12:45:05;;;;;;;19.57;17.53;;;24.60;69.30;;;;;;5053690;28;20532;-70
2022/06/06 12:47:57;;;;;;;3.10;2.90;;;24.90;68.70;;;;;;5040675;28;20469;-70
2022/06/06 12:50:41;;;;;;;3.40;2.70;;;25.00;68.40;;;;;;5053388;28;20438;-70
2022/06/06 12:53:50;;;;;;;3.43;3.23;;;25.30;68.30;;;;;;5053183;28;20453;-70
2022/06/06 12:56:26;;;;;;;2.80;2.70;;;25.50;66.40;;;;;;5053319;28;20463;-70
2022/06/06 12:59:17;;;;;;;3.10;2.90;;;25.80;66.40;;;;;;5053415;28;20556;-70
2022/06/06 13:01:54;;;;;;;3.00;2.80;;;25.80;70.70;;;;;;5053350;28;20522;-70
2022/06/06 13:04:33;;;;;;;2.90;2.80;;;25.60;70.30;;;;;;5053407;28;20524;-70
2022/06/06 13:07:14;;;;;;;3.10;2.90;;;25.60;68.50;;;;;;5053452;28;20827;-70
2022/06/06 13:10:03;;;;;;;3.10;2.90;;;25.70;67.70;;;;;;5053494;28;20556;-69
2022/06/06 13:12:49;;;;;;;3.27;3.07;;;25.70;67.90;;;;;;5055837;28;20449;-69
2022/06/06 13:15:24;;;;;;;6.10;5.60;;;25.50;65.10;;;;;;5057708;28;20422;-69
2022/06/06 13:18:07;;;;;;;3.93;3.53;;;25.30;66.30;;;;;;5057610;28;20528;-69
2022/06/06 13:20:41;;;;;;;3.40;3.20;;;25.20;66.30;;;;;;5057208;28;20488;-69
2022/06/06 13:23:26;;;;;;;3.00;2.80;;;24.90;69.90;;;;;;5057086;28;20532;-70
2022/06/06 13:26:09;;;;;;;3.50;3.20;;;24.60;64.80;;;;;;5057366;28;20479;-70
2022/06/06 13:28:46;;;;;;;3.27;3.07;;;24.30;67.50;;;;;;5057301;28;20557;-70
2022/06/06 13:31:24;;;;;;;3.63;3.33;;;24.20;68.10;;;;;;5057271;28;20528;-70
2022/06/06 13:34:03;;;;;;;3.83;3.53;;;24.00;69.60;;;;;;5056907;28;20448;-70
2022/06/06 13:36:46;;;;;;;3.40;3.20;;;23.90;71.30;;;;;;5057127;28;20914;-70
2022/06/06 13:39:26;;;;;;;3.37;2.80;;;23.50;71.50;;;;;;5057022;28;20485;-70
2022/06/06 13:42:03;;;;;;;3.30;3.10;;;23.20;69.20;;;;;;5057157;28;20524;-70
2022/06/06 13:44:52;;;;;;;3.20;2.90;;;23.00;70.90;;;;;;5056789;28;20541;-70
2022/06/06 13:47:37;;;;;;;2.73;2.53;;;22.80;70.50;;;;;;5056997;28;20664;-70
2022/06/06 13:50:14;;;;;;;3.20;3.00;;;22.90;70.20;;;;;;5057018;28;20471;-70
2022/06/06 13:53:06;;;;;;;2.73;2.60;;;22.60;70.60;;;;;;5056356;28;20552;-71
2022/06/06 13:55:37;;;;;;;3.20;3.00;;;22.50;72.10;;;;;;5027947;28;20521;-70
2022/06/06 13:58:23;;;;;;;2.93;2.73;;;22.60;74.10;;;;;;5056695;28;20446;-70
2022/06/06 14:01:05;;;;;;;3.30;3.10;;;22.50;73.10;;;;;;5056843;28;20469;-70
2022/06/06 14:03:50;;;;;;;3.33;3.13;;;22.40;73.90;;;;;;5056594;28;20445;-70
2022/06/06 14:06:36;;;;;;;3.30;3.07;;;22.40;79.70;;;;;;5056660;28;20573;-70
2022/06/06 14:09:03;;;;;;;4.70;2.90;;;22.60;78.00;;;;;;5056621;28;20473;-70
2022/06/06 14:12:00;;;;;;;3.43;3.23;;;22.70;79.40;;;;;;5056602;28;20450;-70
2022/06/06 14:14:30;;;;;;;3.30;3.10;;;22.90;75.90;;;;;;5056386;28;20533;-69
2022/06/06 14:17:01;;;;;;;3.73;3.53;;;23.00;75.40;;;;;;5056381;28;20442;-69
2022/06/06 14:19:35;;;;;;;3.37;3.17;;;23.10;75.70;;;;;;5056533;28;20554;-70